To NAV CANADA Home Page Login to a new session Search on AWWS site Disclaimer Vers la page française équivalente Tips FAQ What's new on the site To the Forecasts and Observations / NOTAM section To "File a Flight Plan" website Publications and other links Update of the User's profile FIC Telephone Numbers My Weather Data Folder Route Weather Data Regional Weather Data Local Weather Data To the Forecasts and Observations / NOTAM section
Request Generated 04/24/2019 at 16:16:27 UTC . Weather information available at that time is displayed.

METAR/TAF

FREDERICTON INTL/NB    (show WxCam)

SPECI CYFC 241615Z AUTO 07005KT 4SM BR BKN010 OVC014 04/03 A2976 RMK SLP080=
SPECI CYFC 241605Z AUTO 06005KT 9SM BKN010 OVC014 04/03 A2976 RMK SLP080=
METAR CYFC 241600Z AUTO 08004KT 9SM BKN010 OVC014 04/03 A2976 RMK SLP080=
SPECI CYFC 241531Z AUTO 08005KT 9SM OVC012 03/03 A2976 RMK SLP080=
SPECI CYFC 241521Z AUTO 08005KT 6SM -RA BR BKN010 OVC014 04/04 A2976 RMK SLP079=
METAR CYFC 241500Z AUTO 07005KT 3SM -RA BR OVC010 03/02 A2976 RMK SLP080=
SPECI CYFC 241454Z AUTO 06005KT 4SM -RA BR OVC010 03/02 A2976 RMK SLP080=
SPECI CYFC 241452Z AUTO 06005KT 5SM BR OVC010 03/02 A2976 RMK SLP080=
METAR CYFC 241400Z AUTO 03004KT 9SM OVC012 03/02 A2977 RMK SLP083=

TAF CYFC 241142Z 2412/2424 35006KT P6SM OVC012 TEMPO 2412/2415 4SM
-RA -DZ BR OVC008
FM241500 05006KT P6SM -RA SCT008 OVC015 TEMPO 2415/2424 5SM -RA
BR BKN008 OVC015
BECMG 2421/2423 36010KT
RMK FCST BASED ON AUTO OBS. NXT FCST BY 241800Z=
Your time UTC time
Weather data provided by Environment Canada and NAV CANADA